createdAt,value
2023-02-06T00:01:43.954Z,25.73
2023-02-06T00:04:12.679Z,25.27
2023-02-06T00:06:41.031Z,25.17
2023-02-06T00:09:09.592Z,26.48
2023-02-06T00:11:38.194Z,27.30
2023-02-06T00:14:07.011Z,26.05
2023-02-06T00:16:36.792Z,27.38
2023-02-06T00:19:06.797Z,25.60
2023-02-06T00:21:35.457Z,25.67
2023-02-06T00:24:04.143Z,26.55
2023-02-06T00:26:32.763Z,26.00
2023-02-06T00:29:01.191Z,25.95
2023-02-06T00:31:29.540Z,26.08
2023-02-06T00:33:57.974Z,26.17
2023-02-06T00:36:28.604Z,25.00
2023-02-06T00:38:56.932Z,25.75
2023-02-06T00:41:25.408Z,24.85
2023-02-06T00:43:53.694Z,25.48
2023-02-06T00:46:22.140Z,26.42
2023-02-06T00:48:52.435Z,26.20
2023-02-06T00:51:20.981Z,25.63
2023-02-06T00:53:51.297Z,27.10
2023-02-06T00:56:21.230Z,25.10
2023-02-06T00:58:49.664Z,24.65
2023-02-06T01:01:18.296Z,25.20
2023-02-06T01:03:47.126Z,26.15
2023-02-06T01:06:15.512Z,24.67
2023-02-06T01:08:43.957Z,25.77
2023-02-06T01:11:16.041Z,25.35
2023-02-06T01:13:44.777Z,25.13
2023-02-06T01:16:15.977Z,25.88
2023-02-06T01:18:44.451Z,24.90
2023-02-06T01:21:15.049Z,25.77
2023-02-06T01:23:44.493Z,26.15
2023-02-06T01:26:17.367Z,25.98
2023-02-06T01:28:48.526Z,25.70
2023-02-06T01:31:20.282Z,26.65
2023-02-06T01:33:50.705Z,25.73
2023-02-06T01:36:20.955Z,27.67
2023-02-06T01:38:50.292Z,24.73
2023-02-06T01:41:22.376Z,25.65
2023-02-06T01:44:12.750Z,26.38
2023-02-06T01:46:43.110Z,26.23
2023-02-06T01:49:17.451Z,25.48
2023-02-06T01:51:46.823Z,27.33
2023-02-06T01:54:16.406Z,26.35
2023-02-06T01:56:50.894Z,25.67
2023-02-06T01:59:19.438Z,26.20
2023-02-06T02:01:48.211Z,25.85
2023-02-06T02:04:20.308Z,27.05
2023-02-06T02:06:55.848Z,27.52
2023-02-06T02:09:24.384Z,27.02
2023-02-06T02:11:54.272Z,26.35
2023-02-06T02:14:22.733Z,28.13
2023-02-06T02:17:04.915Z,26.75
2023-02-06T02:20:16.430Z,27.40
2023-02-06T02:22:58.223Z,26.30
2023-02-06T02:26:38.042Z,26.10
2023-02-06T02:29:47.047Z,25.67
2023-02-06T02:32:52.068Z,25.70
2023-02-06T02:35:35.425Z,27.83
2023-02-06T02:38:19.336Z,26.85
2023-02-06T02:40:56.188Z,27.60
2023-02-06T02:43:35.710Z,26.98
2023-02-06T02:46:13.829Z,26.17
2023-02-06T02:48:46.627Z,27.05
2023-02-06T02:51:16.654Z,25.88
2023-02-06T02:53:45.208Z,26.77
2023-02-06T02:56:18.817Z,29.20
2023-02-06T02:58:51.842Z,27.52
2023-02-06T03:01:26.108Z,27.48
2023-02-06T03:03:56.569Z,29.25
2023-02-06T03:06:44.764Z,26.75
2023-02-06T03:09:23.853Z,27.00
2023-02-06T03:12:01.883Z,27.55
2023-02-06T03:14:36.026Z,26.13
2023-02-06T03:17:10.000Z,25.80
2023-02-06T03:19:45.254Z,25.43
2023-02-06T03:24:44.362Z,25.77
2023-02-06T03:27:16.196Z,27.48
2023-02-06T03:29:46.276Z,25.60
2023-02-06T03:32:19.682Z,26.10
2023-02-06T03:34:56.633Z,25.75
2023-02-06T03:37:27.752Z,24.90
2023-02-06T03:39:59.105Z,26.00
2023-02-06T03:42:27.832Z,25.52
2023-02-06T03:45:01.237Z,24.75
2023-02-06T03:47:31.329Z,25.02
2023-02-06T03:50:02.664Z,25.60
2023-02-06T03:52:39.638Z,25.05
2023-02-06T03:55:12.577Z,24.88
2023-02-06T03:57:43.416Z,26.10
2023-02-06T04:00:13.980Z,24.60
2023-02-06T04:02:43.481Z,27.70
2023-02-06T04:05:11.743Z,25.45
2023-02-06T04:07:41.564Z,24.85
2023-02-06T04:10:10.358Z,25.00
2023-02-06T04:12:39.299Z,23.80
2023-02-06T04:15:08.539Z,24.92
2023-02-06T04:17:53.721Z,26.10
2023-02-06T04:20:25.612Z,26.15
2023-02-06T04:22:55.511Z,31.83
2023-02-06T04:25:23.912Z,27.33
2023-02-06T04:27:52.333Z,26.08
2023-02-06T04:30:20.738Z,26.08
2023-02-06T04:32:49.006Z,25.10
2023-02-06T04:35:17.524Z,24.55
2023-02-06T04:37:45.768Z,25.90
2023-02-06T04:40:18.223Z,25.90
2023-02-06T04:42:46.640Z,25.75
2023-02-06T04:45:15.061Z,25.02
2023-02-06T04:47:43.541Z,25.85
2023-02-06T04:50:12.283Z,24.65
2023-02-06T04:52:40.561Z,24.67
2023-02-06T04:55:09.914Z,26.52
2023-02-06T04:57:39.768Z,25.63
2023-02-06T05:00:10.356Z,26.15
2023-02-06T05:02:39.824Z,25.60
2023-02-06T05:05:10.337Z,24.30
2023-02-06T05:07:38.629Z,25.55
2023-02-06T05:10:08.887Z,25.70
2023-02-06T05:12:39.055Z,25.90
2023-02-06T05:15:08.809Z,24.05
2023-02-06T05:17:37.123Z,25.17
2023-02-06T05:20:06.825Z,26.30
2023-02-06T05:22:35.251Z,24.70
2023-02-06T05:25:03.994Z,23.70
2023-02-06T05:27:32.255Z,25.23
2023-02-06T05:30:02.222Z,24.95
2023-02-06T05:32:30.437Z,25.38
2023-02-06T05:34:58.760Z,24.13
2023-02-06T05:37:27.108Z,24.27
2023-02-06T05:39:55.322Z,22.98
2023-02-06T05:42:23.578Z,22.95
2023-02-06T05:44:51.856Z,23.52
2023-02-06T05:47:21.473Z,22.40
2023-02-06T05:49:49.846Z,21.35
2023-02-06T05:52:18.241Z,21.38
2023-02-06T05:54:46.583Z,20.63
2023-02-06T05:57:14.964Z,22.73
2023-02-06T05:59:43.204Z,23.40
2023-02-06T06:02:11.861Z,21.10
2023-02-06T06:04:41.636Z,20.20
2023-02-06T06:07:10.668Z,20.77
2023-02-06T06:09:38.998Z,20.90
2023-02-06T06:12:08.003Z,19.98
2023-02-06T06:14:36.589Z,21.63
2023-02-06T06:17:05.222Z,20.10
2023-02-06T06:19:33.681Z,22.95
2023-02-06T06:22:03.511Z,22.35
2023-02-06T06:24:31.854Z,21.67
2023-02-06T06:27:00.224Z,20.73
2023-02-06T06:29:28.584Z,21.30
2023-02-06T06:31:57.253Z,21.38
2023-02-06T06:34:27.379Z,21.55
2023-02-06T06:36:55.728Z,21.13
2023-02-06T06:39:25.663Z,20.90
2023-02-06T06:41:53.961Z,20.52
2023-02-06T06:44:22.639Z,21.02
2023-02-06T06:46:51.136Z,20.10
2023-02-06T06:49:19.727Z,20.90
2023-02-06T06:51:47.982Z,19.92
2023-02-06T06:54:16.760Z,20.52
2023-02-06T06:56:46.364Z,21.05
2023-02-06T06:59:14.587Z,21.88
2023-02-06T07:01:42.864Z,19.98
2023-02-06T07:04:11.194Z,21.35
2023-02-06T07:06:39.538Z,20.40
2023-02-06T07:09:07.815Z,20.05
2023-02-06T07:14:06.956Z,20.10
2023-02-06T07:16:35.246Z,19.85
2023-02-06T07:19:03.766Z,20.25
2023-02-06T07:21:32.092Z,20.13
2023-02-06T07:24:00.701Z,19.05
2023-02-06T07:26:29.068Z,18.17
2023-02-06T07:28:58.572Z,18.92
2023-02-06T07:31:28.259Z,19.08
2023-02-06T07:33:56.545Z,18.63
2023-02-06T07:36:24.807Z,17.73
2023-02-06T07:38:53.199Z,17.73
2023-02-06T07:41:21.437Z,17.10
2023-02-06T07:43:49.799Z,17.85
2023-02-06T07:46:18.208Z,18.00
2023-02-06T07:48:47.986Z,18.30
2023-02-06T07:51:16.238Z,17.13
2023-02-06T07:53:44.551Z,17.50
2023-02-06T07:56:15.724Z,16.02
2023-02-06T07:58:44.426Z,15.45
2023-02-06T08:01:12.736Z,15.27
2023-02-06T08:03:41.061Z,14.82
2023-02-06T08:06:13.029Z,14.50
2023-02-06T08:08:41.749Z,13.65
2023-02-06T08:11:12.479Z,13.00
2023-02-06T08:13:40.958Z,12.93
2023-02-06T08:16:13.206Z,14.00
2023-02-06T08:18:42.009Z,13.38
2023-02-06T08:21:15.072Z,11.05
2023-02-06T08:23:44.483Z,11.77
2023-02-06T08:26:16.656Z,10.63
2023-02-06T08:28:47.551Z,11.52
2023-02-06T08:31:20.050Z,11.45
2023-02-06T08:33:49.001Z,11.43
2023-02-06T08:36:20.688Z,10.63
2023-02-06T08:38:49.547Z,9.73
2023-02-06T08:41:20.651Z,9.60
2023-02-06T08:43:50.699Z,10.10
2023-02-06T08:46:21.905Z,10.63
2023-02-06T08:48:55.228Z,10.13
2023-02-06T08:51:27.810Z,9.82
2023-02-06T08:53:58.301Z,8.95
2023-02-06T08:56:28.269Z,9.88
2023-02-06T08:58:59.501Z,9.68
2023-02-06T09:01:30.178Z,9.95
2023-02-06T09:04:00.806Z,9.38
2023-02-06T09:06:31.852Z,10.10
2023-02-06T09:09:00.464Z,9.63
2023-02-06T09:11:29.990Z,9.38
2023-02-06T09:14:01.000Z,9.68
2023-02-06T09:16:33.121Z,8.55
2023-02-06T09:19:02.757Z,8.80
2023-02-06T09:21:34.602Z,8.40
2023-02-06T09:24:05.336Z,7.88
2023-02-06T09:26:40.575Z,8.60
2023-02-06T09:29:13.698Z,8.43
2023-02-06T09:31:43.640Z,8.13
2023-02-06T09:34:14.415Z,8.63
2023-02-06T09:36:44.155Z,9.60
2023-02-06T09:39:12.433Z,9.05
2023-02-06T09:41:47.130Z,9.93
2023-02-06T09:44:21.185Z,8.45
2023-02-06T09:46:54.360Z,8.67
2023-02-06T09:49:27.166Z,8.20
2023-02-06T09:52:19.502Z,8.60
2023-02-06T09:55:00.415Z,9.25
2023-02-06T09:57:42.016Z,8.77
2023-02-06T10:00:29.589Z,9.23
2023-02-06T10:03:29.594Z,9.35
2023-02-06T10:06:12.671Z,8.02
2023-02-06T10:08:50.383Z,8.27
2023-02-06T10:11:25.730Z,8.82
2023-02-06T10:13:59.491Z,8.80
2023-02-06T10:16:39.521Z,8.52
2023-02-06T10:19:22.840Z,7.97
2023-02-06T10:21:57.118Z,7.22
2023-02-06T10:24:38.193Z,6.32
2023-02-06T10:27:13.831Z,6.90
2023-02-06T10:29:44.322Z,6.35
2023-02-06T10:32:38.473Z,7.07
2023-02-06T10:35:29.631Z,7.70
2023-02-06T10:38:28.468Z,7.90
2023-02-06T10:41:05.615Z,6.95
2023-02-06T10:43:44.776Z,5.00
2023-02-06T10:46:39.678Z,5.30
2023-02-06T10:49:18.622Z,4.70
2023-02-06T10:51:52.743Z,4.22
2023-02-06T10:54:25.694Z,4.55
2023-02-06T10:56:58.581Z,4.00
2023-02-06T10:59:31.315Z,5.05
2023-02-06T11:02:19.901Z,6.72
2023-02-06T11:04:55.334Z,4.95
2023-02-06T11:07:31.556Z,4.18
2023-02-06T11:10:00.709Z,3.75
2023-02-06T11:12:37.148Z,3.75
2023-02-06T11:15:19.439Z,4.30
2023-02-06T11:17:47.947Z,3.78
2023-02-06T11:20:23.209Z,4.35
2023-02-06T11:22:53.543Z,4.18
2023-02-06T11:25:28.657Z,4.15
2023-02-06T11:27:59.623Z,3.88
2023-02-06T11:30:35.653Z,4.57
2023-02-06T11:33:08.654Z,4.75
2023-02-06T11:35:41.983Z,4.45
2023-02-06T11:38:18.145Z,4.68
2023-02-06T11:40:57.391Z,5.18
2023-02-06T11:43:29.195Z,4.18
2023-02-06T11:46:17.046Z,5.18
2023-02-06T11:48:47.328Z,4.95
2023-02-06T11:51:17.880Z,5.88
2023-02-06T11:53:58.539Z,7.65
2023-02-06T11:56:28.582Z,5.47
2023-02-06T11:59:08.732Z,4.90
2023-02-06T12:01:45.301Z,5.72
2023-02-06T12:04:23.858Z,5.30
2023-02-06T12:06:58.421Z,4.85
2023-02-06T12:09:27.032Z,5.00
2023-02-06T12:12:02.278Z,5.30
2023-02-06T12:14:38.763Z,5.70
2023-02-06T12:17:24.646Z,4.53
2023-02-06T12:20:01.865Z,5.28
2023-02-06T12:22:37.331Z,5.32
2023-02-06T12:25:07.057Z,6.30
2023-02-06T12:27:39.873Z,5.03
2023-02-06T12:30:31.560Z,6.10
2023-02-06T12:33:09.697Z,6.38
2023-02-06T12:35:46.400Z,6.45
2023-02-06T12:38:25.406Z,6.65
2023-02-06T12:41:08.004Z,6.75
2023-02-06T12:43:38.936Z,7.70
2023-02-06T12:46:18.109Z,8.25
2023-02-06T12:48:53.269Z,7.03
2023-02-06T12:51:28.253Z,7.30
2023-02-06T12:56:32.966Z,5.38
2023-02-06T12:59:26.014Z,5.40
2023-02-06T13:02:02.097Z,5.65
2023-02-06T13:04:34.136Z,4.45
2023-02-06T13:07:09.292Z,4.65
2023-02-06T13:09:42.317Z,4.10
2023-02-06T13:12:20.754Z,4.13
2023-02-06T13:14:52.429Z,4.22
2023-02-06T13:17:25.378Z,4.53
2023-02-06T13:20:06.952Z,5.07
2023-02-06T13:22:45.783Z,4.53
2023-02-06T13:25:50.888Z,7.65
2023-02-06T13:28:58.064Z,4.70
2023-02-06T13:31:33.768Z,3.60
2023-02-06T13:34:09.600Z,3.10
2023-02-06T13:36:53.874Z,3.47
2023-02-06T13:39:33.403Z,3.00
2023-02-06T13:42:35.705Z,3.15
2023-02-06T13:45:07.093Z,3.70
2023-02-06T13:48:47.380Z,3.83
2023-02-06T13:51:48.518Z,3.88
2023-02-06T13:54:43.726Z,3.08
2023-02-06T13:57:29.813Z,3.00
2023-02-06T14:00:03.771Z,3.17
2023-02-06T14:02:39.319Z,3.28
2023-02-06T14:05:12.810Z,2.95
2023-02-06T14:08:08.430Z,3.05
2023-02-06T14:11:23.487Z,2.78
2023-02-06T14:14:28.296Z,2.58
2023-02-06T14:17:08.593Z,3.15
2023-02-06T14:19:46.582Z,2.90
2023-02-06T14:22:37.638Z,2.80
2023-02-06T14:25:39.647Z,3.13
2023-02-06T14:28:21.561Z,2.88
2023-02-06T14:31:01.667Z,3.53
2023-02-06T14:33:53.438Z,2.90
2023-02-06T14:36:40.247Z,3.22
2023-02-06T14:39:48.172Z,2.83
2023-02-06T14:42:23.646Z,3.20
2023-02-06T14:45:01.815Z,2.78
2023-02-06T14:47:33.974Z,2.92
2023-02-06T14:50:02.945Z,5.00
2023-02-06T14:52:34.354Z,3.85
2023-02-06T14:55:02.995Z,3.50
2023-02-06T14:57:34.489Z,3.28
2023-02-06T15:00:08.931Z,3.10
2023-02-06T15:02:40.064Z,3.10
2023-02-06T15:05:26.442Z,3.35
2023-02-06T15:07:59.692Z,3.30
2023-02-06T15:10:31.235Z,4.35
2023-02-06T15:13:01.132Z,4.05
2023-02-06T15:15:31.833Z,3.35
2023-02-06T15:18:04.184Z,3.20
2023-02-06T15:20:37.324Z,4.22
2023-02-06T15:23:17.698Z,3.70
2023-02-06T15:26:06.898Z,3.88
2023-02-06T15:28:38.184Z,4.03
2023-02-06T15:31:18.109Z,3.42
2023-02-06T15:33:50.917Z,3.70
2023-02-06T15:36:25.501Z,4.60
2023-02-06T15:38:54.145Z,6.47
2023-02-06T15:41:23.086Z,3.78
2023-02-06T15:44:02.805Z,3.60
2023-02-06T15:46:31.985Z,3.90
2023-02-06T15:49:00.790Z,3.67
2023-02-06T15:51:31.501Z,5.00
2023-02-06T15:54:19.394Z,3.22
2023-02-06T15:56:53.047Z,3.10
2023-02-06T15:59:25.924Z,3.30
2023-02-06T16:01:57.127Z,3.35
2023-02-06T16:04:30.820Z,4.28
2023-02-06T16:07:07.102Z,3.35
2023-02-06T16:09:42.364Z,3.17
2023-02-06T16:12:11.266Z,3.22
2023-02-06T16:14:51.783Z,3.17
2023-02-06T16:17:35.667Z,3.40
2023-02-06T16:20:08.100Z,3.22
2023-02-06T16:22:39.940Z,4.60
2023-02-06T16:25:22.937Z,5.13
2023-02-06T16:27:52.145Z,4.63
2023-02-06T16:30:29.110Z,4.90
2023-02-06T16:33:00.831Z,4.70
2023-02-06T16:35:30.254Z,6.78
2023-02-06T16:37:58.548Z,8.15
2023-02-06T16:40:27.103Z,7.88
2023-02-06T16:42:55.518Z,5.03
2023-02-06T16:45:29.016Z,4.60
2023-02-06T16:47:57.777Z,3.83
2023-02-06T16:50:26.121Z,3.47
2023-02-06T16:52:59.045Z,3.40
2023-02-06T16:55:28.840Z,3.85
2023-02-06T16:58:00.787Z,6.25
2023-02-06T17:00:33.050Z,4.38
2023-02-06T17:03:01.623Z,4.70
2023-02-06T17:05:31.684Z,4.78
2023-02-06T17:08:01.569Z,5.07
2023-02-06T17:10:30.050Z,4.18
2023-02-06T17:12:58.622Z,4.88
2023-02-06T17:15:27.524Z,4.25
2023-02-06T17:17:57.741Z,6.10
2023-02-06T17:20:34.184Z,5.25
2023-02-06T17:23:03.306Z,5.13
2023-02-06T17:25:32.660Z,4.18
2023-02-06T17:28:02.864Z,3.80
2023-02-06T17:30:31.807Z,4.07
2023-02-06T17:33:02.442Z,4.25
2023-02-06T17:35:34.358Z,3.90
2023-02-06T17:38:03.483Z,3.90
2023-02-06T17:40:35.545Z,3.80
2023-02-06T17:43:05.770Z,3.33
2023-02-06T17:45:35.582Z,4.03
2023-02-06T17:48:05.878Z,3.97
2023-02-06T17:50:36.813Z,3.33
2023-02-06T17:53:07.067Z,3.95
2023-02-06T17:55:36.812Z,3.90
2023-02-06T17:58:05.698Z,4.03
2023-02-06T18:00:34.350Z,4.40
2023-02-06T18:03:05.003Z,3.65
2023-02-06T18:05:34.938Z,3.83
2023-02-06T18:08:03.316Z,3.92
2023-02-06T18:10:31.885Z,4.28
2023-02-06T18:13:00.201Z,3.25
2023-02-06T18:15:30.400Z,3.42
2023-02-06T18:18:00.183Z,4.63
2023-02-06T18:20:28.460Z,3.40
2023-02-06T18:22:58.249Z,3.70
2023-02-06T18:25:26.592Z,3.97
2023-02-06T18:27:54.880Z,3.95
2023-02-06T18:30:23.689Z,4.70
2023-02-06T18:32:52.191Z,4.15
2023-02-06T18:35:20.729Z,3.97
2023-02-06T18:37:50.140Z,5.25
2023-02-06T18:40:20.110Z,3.88
2023-02-06T18:42:54.870Z,4.70
2023-02-06T18:45:26.432Z,3.95
2023-02-06T18:47:55.577Z,3.95
2023-02-06T18:50:24.134Z,3.78
2023-02-06T18:52:52.687Z,4.13
2023-02-06T18:55:22.714Z,5.47
2023-02-06T18:57:51.251Z,12.80
2023-02-06T19:00:22.966Z,5.88
2023-02-06T19:02:51.658Z,4.60
2023-02-06T19:05:21.065Z,5.22
2023-02-06T19:07:52.213Z,4.55
2023-02-06T19:10:23.050Z,3.60
2023-02-06T19:12:51.418Z,4.00
2023-02-06T19:15:20.403Z,4.28
2023-02-06T19:17:50.177Z,4.40
2023-02-06T19:20:19.265Z,3.70
2023-02-06T19:22:47.570Z,4.03
2023-02-06T19:25:16.113Z,3.88
2023-02-06T19:27:45.790Z,3.95
2023-02-06T19:30:14.541Z,5.82
2023-02-06T19:32:43.448Z,3.97
2023-02-06T19:35:12.112Z,3.80
2023-02-06T19:37:40.771Z,4.93
2023-02-06T19:40:09.862Z,4.75
2023-02-06T19:42:39.610Z,4.53
2023-02-06T19:45:09.641Z,5.63
2023-02-06T19:47:37.909Z,5.55
2023-02-06T19:50:07.233Z,5.28
2023-02-06T19:52:35.608Z,5.65
2023-02-06T19:55:04.328Z,5.43
2023-02-06T19:57:32.870Z,5.90
2023-02-06T20:00:01.194Z,6.22
2023-02-06T20:02:30.976Z,6.13
2023-02-06T20:05:01.571Z,6.20
2023-02-06T20:07:31.840Z,6.00
2023-02-06T20:10:00.224Z,6.18
2023-02-06T20:12:29.200Z,5.88
2023-02-06T20:14:57.595Z,5.93
2023-02-06T20:17:26.957Z,5.70
2023-02-06T20:19:59.847Z,5.38
2023-02-06T20:22:28.135Z,6.03
2023-02-06T20:24:56.593Z,5.20
2023-02-06T20:27:24.838Z,5.80
2023-02-06T20:29:53.944Z,5.78
2023-02-06T20:32:22.877Z,5.38
2023-02-06T20:34:51.771Z,5.72
2023-02-06T20:37:25.037Z,7.15
2023-02-06T20:39:53.940Z,5.93
2023-02-06T20:42:30.074Z,9.15
2023-02-06T20:44:59.509Z,6.88
2023-02-06T20:47:28.366Z,6.13
2023-02-06T20:50:00.365Z,5.55
2023-02-06T20:52:30.587Z,5.35
2023-02-06T20:54:58.988Z,5.65
2023-02-06T20:57:28.146Z,5.40
2023-02-06T20:59:56.406Z,6.15
2023-02-06T21:02:24.906Z,5.88
2023-02-06T21:04:53.284Z,5.25
2023-02-06T21:07:21.639Z,6.32
2023-02-06T21:09:51.729Z,6.45
2023-02-06T21:12:20.214Z,7.30
2023-02-06T21:14:48.560Z,6.13
2023-02-06T21:17:16.902Z,6.10
2023-02-06T21:19:45.267Z,6.20
2023-02-06T21:22:13.661Z,7.45
2023-02-06T21:24:41.996Z,6.30
2023-02-06T21:27:12.086Z,6.13
2023-02-06T21:29:40.453Z,6.05
2023-02-06T21:32:14.063Z,6.47
2023-02-06T21:34:43.729Z,5.65
2023-02-06T21:37:12.190Z,5.50
2023-02-06T21:39:41.060Z,5.82
2023-02-06T21:42:11.604Z,6.15
2023-02-06T21:44:39.835Z,5.80
2023-02-06T21:47:09.819Z,5.22
2023-02-06T21:49:38.334Z,5.88
2023-02-06T21:52:06.601Z,5.28
2023-02-06T21:54:34.898Z,5.40
2023-02-06T21:57:03.390Z,6.10
2023-02-06T21:59:34.165Z,5.07
2023-02-06T22:02:02.591Z,5.82
2023-02-06T22:04:30.903Z,5.38
2023-02-06T22:06:59.334Z,6.20
2023-02-06T22:09:27.669Z,5.50
2023-02-06T22:11:56.748Z,5.75
2023-02-06T22:14:25.257Z,5.40
2023-02-06T22:16:55.006Z,5.93
2023-02-06T22:19:23.306Z,5.38
2023-02-06T22:21:51.678Z,6.18
2023-02-06T22:24:20.628Z,5.70
2023-02-06T22:26:49.012Z,5.82
2023-02-06T22:29:18.869Z,5.68
2023-02-06T22:31:48.413Z,5.28
2023-02-06T22:34:21.294Z,5.55
2023-02-06T22:36:51.192Z,5.70
2023-02-06T22:39:19.608Z,5.78
2023-02-06T22:41:48.893Z,6.22
2023-02-06T22:44:18.594Z,5.88
2023-02-06T22:46:49.861Z,5.32
2023-02-06T22:49:20.771Z,6.38
2023-02-06T22:51:49.405Z,5.68
2023-02-06T22:54:18.133Z,5.38
2023-02-06T22:56:47.040Z,6.75
2023-02-06T22:59:19.141Z,5.85
2023-02-06T23:01:49.720Z,6.43
2023-02-06T23:04:23.010Z,5.93
2023-02-06T23:06:52.920Z,6.03
2023-02-06T23:09:24.149Z,6.47
2023-02-06T23:11:54.053Z,7.10
2023-02-06T23:14:22.674Z,6.47
2023-02-06T23:16:51.590Z,6.70
2023-02-06T23:19:22.007Z,6.20
2023-02-06T23:21:52.221Z,6.47
2023-02-06T23:24:21.287Z,6.22
2023-02-06T23:26:53.153Z,6.13
2023-02-06T23:29:23.869Z,5.70
2023-02-06T23:31:52.698Z,6.07
2023-02-06T23:34:24.492Z,5.88
2023-02-06T23:36:53.931Z,6.40
2023-02-06T23:39:22.792Z,6.40
2023-02-06T23:41:51.254Z,6.65
2023-02-06T23:44:20.086Z,5.53
2023-02-06T23:46:48.717Z,5.80
2023-02-06T23:49:17.070Z,6.13
2023-02-06T23:51:47.109Z,5.88
2023-02-06T23:54:15.513Z,5.13
2023-02-06T23:56:44.160Z,5.57
2023-02-06T23:59:12.896Z,6.50
